Latest Weather Observations for Bushy Park

IDT60901

Issued at 6:21 pm EST Tuesday 26 July 2016 (issued every 10 minutes, with the page automatically refreshed every 10 minutes)

About weather observations | Map of Hobart area stations | Latest observations for Hobart area | Other Formats
Station Details ID: 095003 Name: BUSHY PARK (BUSHY PARK ESTATES) Lat: -42.71 Lon: 146.90 Height: 27.0 m
Data from the previous 72 hours. | See also: Recent months at Bushy Park
Date/Time
EST
Temp
°C
App
Temp
°C
Dew
Point
°C
Rel
Hum
%
Delta-T
°C
Wind Press
QNH
hPa
Press
MSL
hPa
Rain since
9am
mm
Dir  Spd
km/h
Gust
km/h
Spd
kts
Gust
kts
26/06:00pm 4.4 1.1 2.7 89 0.7 WNW 9 13 5 7 - - 0.4
26/05:30pm 5.3 2.7 3.1 86 0.9 NNW 6 11 3 6 - - 0.2
26/05:00pm 6.8 3.6 3.0 77 1.6 NNW 9 13 5 7 - - 0.2
26/04:30pm 7.4 2.8 1.8 67 2.3 NNW 15 20 8 11 - - 0.2
26/04:00pm 7.8 1.9 1.8 66 2.5 N 22 35 12 19 - - 0.2
26/03:30pm 7.9 4.7 3.2 72 2.0 WNW 9 13 5 7 - - 0.2
26/03:00pm 8.3 5.0 2.7 68 2.4 W 9 13 5 7 - - 0.2
26/02:30pm 9.0 4.4 1.6 60 3.1 NW 15 30 8 16 - - 0.2
26/02:00pm 8.8 5.0 1.9 62 2.9 WNW 11 19 6 10 - - 0.2
26/01:30pm 9.2 3.8 1.5 58 3.2 WNW 19 30 10 16 - - 0.2
26/01:00pm 8.8 2.4 1.0 58 3.2 WNW 24 39 13 21 - - 0.2
26/12:30pm 9.0 1.9 1.3 58 3.2 NNW 28 39 15 21 - - 0.2
26/12:03pm 8.5 0.6 1.2 60 3.0 N 32 50 17 27 - - 0.2
26/12:00pm 9.3 1.4 1.1 56 3.4 N 32 44 17 24 - - 0.2
26/11:30am 8.3 2.4 1.8 63 2.7 N 22 37 12 20 - - 0.2
26/11:00am 8.1 2.6 2.1 66 2.5 N 20 30 11 16 - - 0.2
26/10:30am 7.0 0.9 2.5 73 1.9 N 24 37 13 20 - - 0.2
26/10:00am 5.9 -0.4 1.7 74 1.7 NNW 24 41 13 22 - - 0.0
26/09:30am 6.4 0.8 0.9 68 2.2 WSW 20 35 11 19 - - 0.0
26/09:00am 6.2 0.0 -0.2 63 2.5 W 22 41 12 22 - - 9.2
26/08:30am 5.7 -0.2 -0.6 64 2.4 W 20 35 11 19 - - 9.2
26/08:00am 5.7 -0.5 -0.3 65 2.3 NW 22 41 12 22 - - 9.2
26/07:30am 3.9 -0.4 1.1 82 1.1 N 13 22 7 12 - - 9.2
26/07:00am 3.8 -0.7 2.1 89 0.7 NNW 15 28 8 15 - - 9.2
26/06:30am 3.8 -1.5 2.1 89 0.7 N 19 28 10 15 - - 9.0
26/06:00am 4.3 -1.1 2.3 87 0.8 N 20 30 11 16 - - 7.8
26/05:30am 4.4 1.1 2.7 89 0.7 N 9 13 5 7 - - 7.6
26/05:00am 4.5 2.2 2.5 87 0.8 SE 4 9 2 5 - - 7.4
26/04:30am 4.8 -1.1 1.8 81 1.2 N 22 32 12 17 - - 7.2
26/04:00am 4.9 0.0 1.7 80 1.3 N 17 26 9 14 - - 7.2
26/03:30am 5.0 0.4 1.8 80 1.3 NW 15 28 8 15 - - 7.0
26/03:00am 4.7 -0.6 2.0 83 1.1 N 19 28 10 15 - - 6.8
26/02:30am 4.7 -1.6 1.7 81 1.2 N 24 37 13 20 - - 6.8
26/02:00am 4.3 -3.1 2.1 86 0.9 N 30 41 16 22 - - 6.8
26/01:30am 4.2 -1.2 2.5 89 0.7 N 20 33 11 18 - - 6.6
26/01:00am 4.5 0.5 2.8 89 0.7 NW 13 22 7 12 - - 6.2
26/12:30am 4.4 0.4 2.9 90 0.6 NNW 13 17 7 9 - - 5.6
26/12:00am 4.8 0.8 2.9 87 0.8 NNW 13 28 7 15 - - 4.6
 
Date/Time
EST
Temp
°C
App
Temp
°C
Dew
Point
°C
Rel
Hum
%
Delta-T
°C
Wind Press
QNH
hPa
Press
MSL
hPa
Rain since
9am
mm
Dir  Spd
km/h
Gust
km/h
Spd
kts
Gust
kts
25/11:30pm 5.0 1.5 3.6 91 0.6 NW 11 17 6 9 - - 2.2
25/11:00pm 5.4 1.5 3.3 86 0.9 WNW 13 19 7 10 - - 1.6
25/10:30pm 5.7 2.6 3.6 86 0.9 W 9 15 5 8 - - 1.6
25/10:00pm 5.6 2.1 3.7 87 0.8 N 11 17 6 9 - - 1.2
25/09:30pm 6.8 2.5 3.3 78 1.5 NW 15 26 8 14 - - 1.2
25/09:00pm 7.6 0.1 3.7 76 1.7 NNW 32 50 17 27 - - 0.8
25/08:30pm 7.8 1.2 4.4 79 1.5 N 28 46 15 25 - - 0.8
25/08:23pm 8.1 1.5 4.2 76 1.7 N 28 46 15 25 - - 0.8
25/08:00pm 7.8 3.3 4.2 78 1.6 N 17 26 9 14 - - 0.6
25/07:30pm 6.0 3.6 4.4 89 0.7 N 6 9 3 5 - - 0.2
25/07:00pm 6.5 3.8 3.9 83 1.1 SW 7 11 4 6 - - 0.2
25/06:30pm 6.5 4.0 3.7 82 1.2 E 6 11 3 6 - - 0.2
25/06:00pm 6.3 3.2 3.7 83 1.1 N 9 11 5 6 - - 0.2
25/05:30pm 7.1 4.0 3.6 78 1.5 N 9 13 5 7 - - 0.2
25/05:00pm 7.7 3.5 3.8 76 1.7 NNE 15 19 8 10 - - 0.2
25/04:30pm 9.2 5.8 4.0 70 2.3 N 11 17 6 9 - - 0.2
25/04:00pm 11.2 7.0 3.6 59 3.4 N 15 20 8 11 - - 0.2
25/03:30pm 11.4 6.9 4.4 62 3.2 N 17 26 9 14 - - 0.2
25/03:00pm 12.2 8.4 4.1 57 3.7 N 13 30 7 16 - - 0.2
25/02:30pm 9.7 7.8 4.8 71 2.2 N 4 9 2 5 - - 0.2
25/02:00pm 9.6 7.1 4.0 68 2.5 N 6 9 3 5 - - 0.2
25/01:30pm 8.5 6.8 3.9 73 2.0 NE 2 7 1 4 - - 0.2
25/01:00pm 8.3 5.8 4.0 74 1.9 NE 6 9 3 5 - - 0.2
25/12:30pm 7.8 5.1 3.6 75 1.8 N 7 11 4 6 - - 0.2
25/12:00pm 6.8 4.2 3.0 77 1.6 NNE 6 13 3 7 - - 0.0
25/11:30am 5.4 2.4 4.0 91 0.6 NNE 9 11 5 6 - - 0.0
25/11:00am 3.5 1.2 2.5 93 0.4 NNE 4 7 2 4 - - 0.0
25/10:30am 2.1 0.0 1.6 96 0.2 N 2 7 1 4 - - 0.0
25/10:00am 1.3 -2.2 1.0 98 0.1 N 9 13 5 7 - - 0.0
25/09:30am 0.6 - - - - N 6 9 3 5 - - 0.0
25/09:00am -0.1 - - - - N 2 6 1 3 - - 0.2
25/08:30am -0.4 - - - - N 7 7 4 4 - - 0.2
25/08:00am -0.3 - - - - N 7 9 4 5 - - 0.2
25/07:30am -0.3 - - - - W 2 7 1 4 - - 0.2
25/07:00am -0.2 - - - - CALM 0 0 0 0 - - 0.2
25/06:30am -0.3 - - - - CALM 0 0 0 0 - - 0.2
25/06:00am -0.2 - - - - NNW 6 7 3 4 - - 0.2
25/05:30am -0.4 - - - - N 7 9 4 5 - - 0.2
25/05:00am -0.1 - - - - SW 2 9 1 5 - - 0.2
25/04:30am -0.4 - - - - N 2 7 1 4 - - 0.2
25/04:00am -0.4 - - - - SW 7 9 4 5 - - 0.2
25/03:30am -0.3 - - - - N 6 7 3 4 - - 0.2
25/03:00am 0.0 - - - - SSW 7 9 4 5 - - 0.2
25/02:30am -0.1 - - - - NNE 4 7 2 4 - - 0.2
25/02:00am 0.4 - - - - CALM 0 0 0 0 - - 0.2
25/01:30am 0.5 -1.5 0.2 98 0.1 CALM 0 0 0 0 - - 0.2
25/01:00am 0.6 -2.5 0.3 98 0.1 N 6 7 3 4 - - 0.2
25/12:30am 0.9 -1.4 0.4 96 0.2 NNW 2 9 1 5 - - 0.2
25/12:00am 0.7 -1.3 0.2 96 0.2 CALM 0 7 0 4 - - 0.2
 
Date/Time
EST
Temp
°C
App
Temp
°C
Dew
Point
°C
Rel
Hum
%
Delta-T
°C
Wind Press
QNH
hPa
Press
MSL
hPa
Rain since
9am
mm
Dir  Spd
km/h
Gust
km/h
Spd
kts
Gust
kts
24/11:30pm 1.0 -0.9 0.5 96 0.2 CALM 0 0 0 0 - - 0.2
24/11:00pm 1.1 -1.9 0.6 96 0.2 N 6 9 3 5 - - 0.2
24/10:30pm 0.8 -1.9 0.3 96 0.2 NNW 4 9 2 5 - - 0.2
24/10:00pm 0.7 -2.6 -0.1 94 0.3 WSW 7 9 4 5 - - 0.2
24/09:30pm 0.9 -2.2 0.1 94 0.3 NNW 6 7 3 4 - - 0.2
24/09:00pm 1.2 -1.1 0.4 94 0.3 NW 2 7 1 4 - - 0.2
24/08:30pm 1.7 -1.3 0.9 94 0.3 WNW 6 7 3 4 - - 0.2
24/08:00pm 1.9 -1.6 1.4 96 0.2 SW 9 13 5 7 - - 0.2
24/07:30pm 2.6 -0.2 1.8 94 0.3 W 6 9 3 5 - - 0.2
24/07:00pm 3.4 0.5 2.4 93 0.4 WSW 7 11 4 6 - - 0.2
24/06:30pm 3.9 0.6 2.7 92 0.5 W 9 11 5 6 - - 0.2
24/06:00pm 4.3 2.8 2.8 90 0.6 CALM 0 0 0 0 - - 0.2
24/05:30pm 5.1 2.3 2.9 86 0.9 NNW 7 9 4 5 - - 0.2
24/05:00pm 6.7 4.0 3.7 81 1.3 NNW 7 9 4 5 - - 0.2
24/04:30pm 7.9 4.8 3.8 75 1.8 N 9 11 5 6 - - 0.2
24/04:00pm 9.0 5.0 3.0 66 2.6 NNW 13 19 7 10 - - 0.2
24/03:30pm 9.6 7.2 2.4 61 3.0 SE 4 7 2 4 - - 0.2
24/03:00pm 10.0 8.5 2.9 61 3.1 CALM 0 0 0 0 - - 0.2
24/02:30pm 9.6 6.8 1.8 58 3.3 SE 6 7 3 4 - - 0.2
24/02:00pm 8.5 5.6 2.4 65 2.6 SSE 7 9 4 5 - - 0.2
24/01:30pm 8.2 4.9 2.5 67 2.4 SSE 9 11 5 6 - - 0.2
24/01:00pm 7.5 4.6 1.7 66 2.4 ESE 6 9 3 5 - - 0.2
24/12:30pm 7.5 4.5 2.2 69 2.2 S 7 9 4 5 - - 0.2
24/12:00pm 6.5 2.9 2.7 77 1.6 SSE 11 13 6 7 - - 0.2
24/11:30am 6.1 3.1 1.7 73 1.8 N 7 11 4 6 - - 0.2
24/11:00am 5.5 2.3 2.9 83 1.1 W 9 13 5 7 - - 0.2
24/10:30am 3.9 0.6 2.7 92 0.5 N 9 11 5 6 - - 0.2
24/10:00am 2.8 -0.2 1.8 93 0.4 N 7 9 4 5 - - 0.2
24/09:30am 1.8 0.0 1.0 94 0.3 CALM 0 7 0 4 - - 0.2
24/09:00am 1.1 -0.7 1.1 100 0.0 CALM 0 0 0 0 - - 6.2
24/08:30am 0.5 - - - - N 2 6 1 3 - - 6.2
24/08:00am 0.0 - - - - SW 7 11 4 6 - - 6.2
24/07:30am -0.2 - - - - N 6 9 3 5 - - 6.2
24/07:00am -0.1 - - - - CALM 0 6 0 3 - - 6.2
24/06:30am 0.1 - - - - NW 6 9 3 5 - - 6.2
24/06:00am 0.0 - - - - SSW 2 9 1 5 - - 6.2
24/05:30am 0.3 - - - - SW 9 13 5 7 - - 6.2
24/05:00am 0.0 - - - - SSW 7 13 4 7 - - 6.2
24/04:30am 0.2 - - - - WNW 6 13 3 7 - - 6.2
24/04:00am 0.6 -1.4 0.1 96 0.2 CALM 0 4 0 2 - - 6.2
24/03:30am 0.5 - - - - N 4 11 2 6 - - 6.2
24/03:00am 0.1 - - - - NNE 4 9 2 5 - - 6.2
24/02:30am 0.4 - - - - N 2 7 1 4 - - 6.2
24/02:00am 0.2 - - - - N 6 11 3 6 - - 6.2
24/01:30am -0.1 - - - - WSW 9 11 5 6 - - 6.2
24/01:00am 0.3 - - - - NW 7 9 4 5 - - 6.2
24/12:30am 0.9 -3.2 -0.5 90 0.5 NNW 11 13 6 7 - - 6.2
24/12:00am 0.6 -3.5 0.1 96 0.2 N 11 17 6 9 - - 6.2
 
Date/Time
EST
Temp
°C
App
Temp
°C
Dew
Point
°C
Rel
Hum
%
Delta-T
°C
Wind Press
QNH
hPa
Press
MSL
hPa
Rain since
9am
mm
Dir  Spd
km/h
Gust
km/h
Spd
kts
Gust
kts
23/11:30pm 0.9 -2.4 0.1 94 0.3 W 7 11 4 6 - - 6.2
23/11:00pm 1.1 -2.6 0.0 92 0.4 WNW 9 15 5 8 - - 6.2
23/10:30pm 1.2 -2.4 0.4 94 0.3 NE 9 13 5 7 - - 6.2
23/10:00pm 2.5 -1.1 0.7 88 0.7 NNW 9 15 5 8 - - 6.2
23/09:30pm 2.1 -1.1 0.8 91 0.5 N 7 11 4 6 - - 6.0
23/09:00pm 2.7 -0.9 0.9 88 0.7 W 9 15 5 8 - - 5.6
23/08:30pm 2.2 -1.4 0.6 89 0.6 N 9 15 5 8 - - 5.4
23/08:00pm 2.5 -1.0 1.2 91 0.5 NNW 9 15 5 8 - - 5.2
23/07:30pm 2.1 -1.5 0.5 89 0.6 N 9 11 5 6 - - 5.2
23/07:00pm 1.9 -1.1 0.6 91 0.5 NE 6 9 3 5 - - 5.0
23/06:30pm 2.7 -0.5 0.6 86 0.8 NNE 7 9 4 5 - - 5.0

Latest Capital City Observations: Canberra | Sydney | Melbourne | Brisbane | Adelaide | Perth | Hobart | Darwin

Other Formats:

Comma delimited format used in spreadsheet applications
http://www.bom.gov.au/fwo/IDT60901/IDT60901.94964.axf

JavaScript Object Notation format (JSON) in row-major order
http://www.bom.gov.au/fwo/IDT60901/IDT60901.94964.json